Time;durP1;ratioP1;P1;durP2;ratioP2;P2;SDS_P1;SDS_P2;PMS_P1;PMS_P2;Temp;Humidity;BMP_temperature;BMP_pressure;BME280_temperature;BME280_humidity;BME280_pressure;Samples;Min_cycle;Max_cycle;Signal;HPM_P1;HPM_P2
2022/01/10 00:02:04;;;;;;;17.97;6.20;;;;;;;13.11;40.82;101109.63;5108971;27;20030;-69
2022/01/10 00:04:30;;;;;;;19.07;5.87;;;;;;;13.46;40.17;101112.56;5115018;27;20035;-69
2022/01/10 00:06:55;;;;;;;24.63;6.90;;;;;;;13.42;41.06;101113.50;5105477;28;20020;-69
2022/01/10 00:09:21;;;;;;;13.10;6.13;;;;;;;13.47;40.75;101127.44;5094409;28;20024;-69
2022/01/10 00:11:46;;;;;;;20.30;6.73;;;;;;;14.30;39.30;101133.75;5111289;27;20023;-69
2022/01/10 00:14:11;;;;;;;14.37;7.33;;;;;;;14.57;38.71;101136.69;5132316;27;20031;-69
2022/01/10 00:16:37;;;;;;;21.63;6.67;;;;;;;14.51;38.75;101139.47;5131279;27;20027;-69
2022/01/10 00:19:03;;;;;;;23.13;6.93;;;;;;;14.56;38.98;101130.56;5114459;27;20060;-68
2022/01/10 00:21:28;;;;;;;19.27;7.17;;;;;;;14.73;38.63;101146.00;5113884;27;20089;-69
2022/01/10 00:23:53;;;;;;;21.83;6.53;;;;;;;14.66;38.59;101149.66;5133286;27;20102;-69
2022/01/10 00:26:19;;;;;;;17.70;7.20;;;;;;;14.64;38.28;101153.22;5112850;27;20024;-69
2022/01/10 00:28:45;;;;;;;20.57;6.87;;;;;;;15.08;37.68;101151.34;5114093;27;20034;-69
2022/01/10 00:31:10;;;;;;;13.17;6.57;;;;;;;14.92;38.10;101156.13;5106822;27;20062;-69
2022/01/10 00:33:35;;;;;;;15.53;6.33;;;;;;;15.23;37.59;101148.34;5114547;27;20027;-69
2022/01/10 00:36:01;;;;;;;16.77;6.80;;;;;;;15.34;37.14;101148.06;5112853;27;20470;-69
2022/01/10 00:38:26;;;;;;;13.70;6.77;;;;;;;15.18;38.01;101154.63;5114080;27;20023;-69
2022/01/10 00:40:51;;;;;;;16.43;5.90;;;;;;;15.03;37.77;101145.31;5132102;27;20019;-68
2022/01/10 00:43:29;;;;;;;14.00;5.60;;;;;;;14.73;38.26;101153.88;5132307;27;20023;-70
2022/01/10 00:45:54;;;;;;;14.57;6.23;;;;;;;14.26;38.97;101147.84;5104412;27;20493;-70
2022/01/10 00:48:19;;;;;;;14.73;7.30;;;;;;;13.58;41.02;101151.75;5131774;27;20027;-69
2022/01/10 00:50:45;;;;;;;15.80;7.07;;;;;;;13.97;39.63;101170.31;5113853;27;20030;-69
2022/01/10 00:53:10;;;;;;;12.93;6.70;;;;;;;13.23;40.97;101184.69;5113789;27;20067;-69
2022/01/10 00:55:35;;;;;;;15.03;5.53;;;;;;;12.88;41.81;101196.53;5112928;27;20031;-69
2022/01/10 00:58:01;;;;;;;16.73;6.33;;;;;;;13.72;39.98;101183.91;5113313;27;20031;-69
2022/01/10 01:00:26;;;;;;;20.87;6.93;;;;;;;14.26;38.99;101200.44;5111630;27;20031;-69
2022/01/10 01:02:52;;;;;;;22.50;7.40;;;;;;;14.83;37.55;101201.06;5113342;27;20081;-69
2022/01/10 01:05:19;;;;;;;22.27;7.23;;;;;;;13.89;39.73;101199.34;5113630;27;20054;-69
2022/01/10 01:07:45;;;;;;;15.63;6.83;;;;;;;14.28;38.83;101197.78;5093806;28;20087;-69
2022/01/10 01:12:54;;;;;;;17.63;6.77;;;;;;;14.73;37.64;101208.28;5132104;27;20054;-69
2022/01/10 01:15:24;;;;;;;14.53;6.20;;;;;;;14.60;37.59;101205.00;5113339;27;20031;-69
2022/01/10 01:25:56;;;;;;;13.13;6.73;;;;;;;14.72;37.81;101225.81;5113765;27;20088;-69
2022/01/10 01:28:22;;;;;;;15.00;7.10;;;;;;;14.33;38.84;101219.56;5106969;28;20019;-70
2022/01/10 01:30:47;;;;;;;19.50;7.07;;;;;;;14.64;37.77;101227.75;5105142;27;20027;-70
2022/01/10 01:33:15;;;;;;;15.63;7.10;;;;;;;14.03;39.72;101228.00;5112936;27;20031;-69
2022/01/10 01:35:40;;;;;;;14.33;6.53;;;;;;;13.86;39.76;101237.94;5131802;27;20034;-69
2022/01/10 01:38:07;;;;;;;15.53;7.30;;;;;;;14.30;39.21;101238.03;5111850;27;20106;-68
2022/01/10 01:40:33;;;;;;;15.17;7.00;;;;;;;14.31;39.19;101251.16;5109295;27;20049;-68
2022/01/10 01:42:59;;;;;;;18.93;7.20;;;;;;;14.39;39.14;101246.63;5113225;27;20011;-68
2022/01/10 01:45:41;;;;;;;13.17;6.90;;;;;;;14.53;38.89;101250.75;5130869;27;20494;-68
2022/01/10 01:48:07;;;;;;;16.88;7.10;;;;;;;13.71;39.82;101250.47;5094530;27;20528;-69
2022/01/10 01:50:33;;;;;;;16.07;7.77;;;;;;;13.93;39.01;101255.38;5112751;27;20367;-69
2022/01/10 01:52:58;;;;;;;13.77;6.60;;;;;;;14.23;39.04;101258.31;5130642;27;20035;-69
2022/01/10 01:55:24;;;;;;;24.00;7.20;;;;;;;14.07;39.57;101258.59;5127002;27;20031;-69
2022/01/10 01:57:49;;;;;;;16.77;7.03;;;;;;;14.32;39.17;101263.41;5113071;27;20444;-69
2022/01/10 02:00:19;;;;;;;10.43;6.80;;;;;;;14.53;38.73;101271.78;5123691;27;20019;-68
2022/01/10 02:02:46;;;;;;;23.17;7.63;;;;;;;14.18;39.04;101270.72;5113354;28;20077;-69
2022/01/10 02:05:12;;;;;;;18.00;6.70;;;;;;;14.50;38.58;101282.38;5112203;27;20026;-68
2022/01/10 02:07:37;;;;;;;13.67;7.07;;;;;;;13.66;40.02;101294.31;5111966;27;20027;-69
2022/01/10 02:10:04;;;;;;;18.80;7.53;;;;;;;13.28;40.75;101292.22;5124611;27;20463;-68
2022/01/10 02:12:30;;;;;;;24.80;8.13;;;;;;;12.74;42.12;101306.91;5111981;27;20027;-68
2022/01/10 02:14:55;;;;;;;21.67;8.17;;;;;;;13.94;39.67;101303.53;5112150;28;20501;-69
2022/01/10 02:17:23;;;;;;;24.20;8.70;;;;;;;14.42;39.00;101301.81;5130966;28;20019;-69
2022/01/10 02:19:59;;;;;;;18.00;8.27;;;;;;;15.00;37.65;101320.00;5102523;28;20043;-71
2022/01/10 02:22:24;;;;;;;15.73;7.50;;;;;;;14.73;37.81;101306.50;5110391;28;20102;-71
2022/01/10 02:24:50;;;;;;;18.53;7.60;;;;;;;15.15;37.52;101317.94;5112050;28;20519;-68
2022/01/10 02:27:15;;;;;;;18.90;7.60;;;;;;;14.79;37.92;101323.94;5130539;28;20023;-69
2022/01/10 02:29:40;;;;;;;17.97;8.17;;;;;;;14.62;38.03;101331.25;5122436;28;20106;-68
2022/01/10 02:32:06;;;;;;;21.93;7.77;;;;;;;14.61;37.83;101327.75;5112268;28;20026;-68
2022/01/10 02:34:32;;;;;;;14.00;7.80;;;;;;;14.61;38.26;101335.66;5128052;28;20027;-69
2022/01/10 02:36:59;;;;;;;16.63;7.87;;;;;;;14.63;37.93;101336.53;5112285;28;20123;-68
2022/01/10 02:39:24;;;;;;;17.47;7.60;;;;;;;14.91;37.24;101341.25;5123025;28;20019;-68
2022/01/10 02:41:50;;;;;;;25.03;8.90;;;;;;;14.92;37.69;101343.00;5091479;28;20035;-69
2022/01/10 02:44:17;;;;;;;19.13;8.20;;;;;;;14.97;37.45;101351.63;5098679;28;20024;-68
2022/01/10 02:46:43;;;;;;;20.50;8.70;;;;;;;14.49;39.01;101364.81;5130800;28;20042;-68
2022/01/10 02:49:11;;;;;;;23.93;8.50;;;;;;;14.87;38.08;101350.97;5103415;28;20024;-68
2022/01/10 02:51:37;;;;;;;16.87;8.33;;;;;;;15.00;37.61;101363.88;5112047;28;20020;-68
2022/01/10 02:54:03;;;;;;;14.87;7.00;;;;;;;15.27;37.59;101372.97;5130376;28;20540;-69
2022/01/10 02:56:28;;;;;;;16.73;7.97;;;;;;;15.23;37.50;101363.41;5120668;28;20027;-69
2022/01/10 02:58:53;;;;;;;24.20;8.27;;;;;;;14.92;37.97;101364.06;5103495;28;20438;-68
2022/01/10 03:01:19;;;;;;;17.10;8.57;;;;;;;15.24;37.81;101370.41;5112141;28;20031;-68
2022/01/10 03:03:44;;;;;;;18.47;8.57;;;;;;;15.22;37.98;101361.66;5125696;28;20055;-68
2022/01/10 03:06:10;;;;;;;15.50;8.30;;;;;;;14.68;38.53;101379.38;5129549;28;20042;-68
2022/01/10 03:08:36;;;;;;;17.57;8.23;;;;;;;14.68;38.77;101381.16;5110885;28;20132;-68
2022/01/10 03:11:01;;;;;;;25.90;8.80;;;;;;;14.45;38.86;101387.66;5107264;28;20447;-69
2022/01/10 03:13:27;;;;;;;17.37;8.20;;;;;;;15.02;38.35;101391.91;5129838;28;20024;-69
2022/01/10 03:15:52;;;;;;;13.00;7.43;;;;;;;14.83;38.34;101396.66;5111200;28;20055;-68
2022/01/10 03:18:18;;;;;;;16.53;7.77;;;;;;;15.46;37.77;101391.03;5123378;28;20028;-68
2022/01/10 03:20:43;;;;;;;16.40;7.83;;;;;;;15.15;37.92;101404.84;5087255;28;20092;-68
2022/01/10 03:23:09;;;;;;;17.83;8.30;;;;;;;15.32;37.51;101405.38;5088228;28;20070;-69
2022/01/10 03:25:34;;;;;;;19.37;8.57;;;;;;;15.59;37.11;101409.19;5093289;28;20035;-68
2022/01/10 03:28:00;;;;;;;15.37;8.33;;;;;;;15.68;36.95;101423.06;5092829;28;20024;-68
2022/01/10 03:30:26;;;;;;;14.00;7.63;;;;;;;15.72;37.06;101430.84;5092287;28;20039;-68
2022/01/10 03:32:52;;;;;;;18.07;8.53;;;;;;;15.84;36.86;101436.78;5091506;28;20055;-68
2022/01/10 03:35:18;;;;;;;14.53;7.33;;;;;;;15.85;37.07;101431.47;5091046;28;20507;-68
2022/01/10 03:37:43;;;;;;;16.73;8.83;;;;;;;16.13;36.22;101446.66;5091101;28;20063;-69
2022/01/10 03:40:09;;;;;;;19.20;8.43;;;;;;;15.89;36.62;101443.69;5092821;28;20106;-68
2022/01/10 03:42:36;;;;;;;22.47;7.97;;;;;;;15.64;36.81;101447.75;5108885;28;20368;-68
2022/01/10 03:45:03;;;;;;;19.47;7.43;;;;;;;15.92;36.69;101459.44;5090431;28;20028;-69
2022/01/10 03:47:29;;;;;;;16.73;7.83;;;;;;;16.07;36.67;101455.59;5092679;28;20016;-68
2022/01/10 03:49:54;;;;;;;14.70;7.33;;;;;;;15.75;36.95;101462.41;5090759;28;20027;-68
2022/01/10 03:52:19;;;;;;;20.13;9.73;;;;;;;15.39;37.48;101467.53;5090724;28;20035;-68
2022/01/10 03:54:45;;;;;;;15.97;7.27;;;;;;;15.71;37.09;101466.00;5091037;28;20476;-69
2022/01/10 03:57:11;;;;;;;18.03;8.43;;;;;;;15.48;37.15;101463.00;5091033;28;20023;-69
2022/01/10 03:59:37;;;;;;;24.47;8.30;;;;;;;15.51;36.89;101474.34;5091469;28;20028;-69
2022/01/10 04:02:04;;;;;;;21.70;8.33;;;;;;;15.03;38.12;101471.75;5071211;28;20568;-69
2022/01/10 04:04:30;;;;;;;17.43;9.03;;;;;;;15.18;37.85;101476.75;5082287;28;20468;-68
2022/01/10 04:06:55;;;;;;;18.70;7.83;;;;;;;14.58;38.76;101481.25;5090104;28;20043;-69
2022/01/10 04:09:21;;;;;;;21.20;8.47;;;;;;;14.25;39.87;101480.03;5091047;28;20450;-68
2022/01/10 04:11:48;;;;;;;15.33;7.57;;;;;;;14.92;38.72;101485.13;5092453;28;20035;-69
2022/01/10 04:14:13;;;;;;;14.13;7.67;;;;;;;15.06;38.40;101485.72;5089975;28;20032;-69
2022/01/10 04:16:39;;;;;;;16.20;8.53;;;;;;;15.39;37.81;101480.72;5091819;28;20729;-69
2022/01/10 04:19:05;;;;;;;25.60;9.70;;;;;;;15.33;36.92;101485.22;5093484;27;20053;-69
2022/01/10 04:21:30;;;;;;;21.17;9.43;;;;;;;15.72;36.83;101483.56;5114438;27;20039;-68
2022/01/10 04:23:56;;;;;;;17.17;8.77;;;;;;;15.09;38.30;101493.56;5132411;27;20114;-69
2022/01/10 04:26:21;;;;;;;17.80;8.67;;;;;;;14.75;39.15;101498.56;5113359;27;20168;-69
2022/01/10 04:28:46;;;;;;;20.50;9.37;;;;;;;13.93;40.10;101507.66;5122694;27;20110;-68
2022/01/10 04:31:12;;;;;;;17.27;8.83;;;;;;;14.26;40.28;101515.97;5107857;27;20027;-69
2022/01/10 04:33:38;;;;;;;15.43;8.60;;;;;;;13.06;41.85;101529.59;5113401;27;20027;-69
2022/01/10 04:36:04;;;;;;;26.37;9.17;;;;;;;14.17;40.13;101527.47;5104181;28;20118;-68
2022/01/10 04:38:30;;;;;;;19.23;8.63;;;;;;;15.19;37.87;101527.63;5098643;27;20022;-69
2022/01/10 04:40:55;;;;;;;23.37;10.43;;;;;;;14.69;38.74;101535.50;5113364;27;20022;-69
2022/01/10 04:43:21;;;;;;;17.50;9.30;;;;;;;14.75;39.00;101541.53;5113994;27;20015;-69
2022/01/10 04:45:47;;;;;;;20.70;9.57;;;;;;;14.97;38.99;101550.84;5113620;27;20031;-69
2022/01/10 04:48:15;;;;;;;19.63;9.33;;;;;;;14.51;39.40;101557.69;5112638;27;20112;-69
2022/01/10 04:53:06;;;;;;;21.80;10.07;;;;;;;14.62;39.28;101561.00;5132578;27;20031;-69
2022/01/10 04:55:31;;;;;;;21.57;10.07;;;;;;;15.43;37.86;101561.41;5127959;27;20031;-69
2022/01/10 04:57:57;;;;;;;21.77;10.37;;;;;;;15.62;37.47;101566.34;5093778;28;20118;-69
2022/01/10 05:00:22;;;;;;;18.20;9.53;;;;;;;15.17;37.99;101575.06;5129558;27;20027;-69
2022/01/10 05:02:49;;;;;;;19.80;9.60;;;;;;;15.36;37.91;101591.41;5131839;27;20031;-69
2022/01/10 05:05:15;;;;;;;21.90;10.03;;;;;;;15.16;38.49;101590.91;5113442;27;20082;-69
2022/01/10 05:07:40;;;;;;;18.17;9.67;;;;;;;15.06;38.71;101601.56;5094547;28;20039;-69
2022/01/10 05:10:06;;;;;;;20.37;9.47;;;;;;;15.15;38.50;101602.31;5095126;27;20031;-69
2022/01/10 05:12:31;;;;;;;19.67;10.30;;;;;;;15.51;37.74;101592.00;5114023;27;20023;-69
2022/01/10 05:14:57;;;;;;;19.17;10.50;;;;;;;15.85;37.11;101596.69;5097137;28;20190;-69
2022/01/10 05:17:24;;;;;;;22.07;10.87;;;;;;;15.46;38.60;101610.56;5111554;27;20052;-69
2022/01/10 05:19:49;;;;;;;21.80;10.30;;;;;;;15.78;37.80;101604.69;5113266;27;20516;-68
2022/01/10 05:22:15;;;;;;;23.70;10.60;;;;;;;15.34;38.26;101613.41;5112754;27;20031;-69
2022/01/10 05:24:40;;;;;;;22.33;10.40;;;;;;;15.39;38.57;101622.97;5131809;27;20019;-68
2022/01/10 05:27:06;;;;;;;22.37;9.87;;;;;;;15.40;38.39;101629.97;5112810;27;20471;-68
2022/01/10 05:29:31;;;;;;;23.57;10.97;;;;;;;15.53;38.33;101627.13;5101459;27;20039;-68
2022/01/10 05:31:57;;;;;;;21.73;10.10;;;;;;;15.95;37.22;101627.25;5113460;27;20113;-68
2022/01/10 05:34:23;;;;;;;25.70;11.57;;;;;;;16.21;36.58;101634.63;5112892;27;20031;-69
2022/01/10 05:36:49;;;;;;;19.50;10.03;;;;;;;15.35;38.31;101647.63;5130810;27;20031;-68
2022/01/10 05:39:14;;;;;;;19.93;9.97;;;;;;;15.20;38.34;101642.63;5102013;28;20518;-68
2022/01/10 05:41:40;;;;;;;20.80;10.47;;;;;;;15.56;37.56;101650.78;5094236;28;20027;-69
2022/01/10 05:44:05;;;;;;;25.43;10.43;;;;;;;15.37;38.55;101651.09;5113712;27;20041;-68
2022/01/10 05:46:34;;;;;;;18.70;9.43;;;;;;;15.41;38.27;101655.44;5111952;27;20035;-68
2022/01/10 05:49:01;;;;;;;19.60;10.23;;;;;;;15.38;37.85;101652.81;5131081;27;20026;-69
2022/01/10 05:51:34;;;;;;;23.90;11.13;;;;;;;14.84;39.30;101666.00;5129866;27;20118;-68
2022/01/10 05:54:00;;;;;;;;;;;;;;;15.39;37.91;101659.84;5131929;27;20060;-68
2022/01/10 05:56:25;;;;;;;22.23;10.30;;;;;;;15.10;38.66;101653.28;5111761;27;20010;-69
2022/01/10 05:58:51;;;;;;;26.27;9.90;;;;;;;14.68;38.95;101674.06;5108561;27;20047;-68
2022/01/10 06:01:16;;;;;;;22.80;10.80;;;;;;;15.75;37.68;101673.25;5112387;28;20118;-68
2022/01/10 06:03:41;;;;;;;21.07;11.10;;;;;;;15.89;37.32;101686.22;5113182;27;20015;-68
2022/01/10 06:06:07;;;;;;;30.80;10.23;;;;;;;15.44;38.17;101694.00;5111646;27;20039;-68
2022/01/10 06:08:32;;;;;;;24.87;10.63;;;;;;;15.53;37.74;101695.63;5112146;28;20031;-69
2022/01/10 06:10:57;;;;;;;32.27;10.53;;;;;;;15.66;37.46;101694.53;5118855;27;20040;-69
2022/01/10 06:13:23;;;;;;;19.53;11.10;;;;;;;15.29;38.44;101694.25;5101200;27;20031;-68
2022/01/10 06:15:48;;;;;;;21.07;11.40;;;;;;;15.17;38.80;101712.00;5112693;28;20114;-69
2022/01/10 06:18:14;;;;;;;22.63;10.77;;;;;;;14.91;39.31;101707.13;5112622;28;20039;-68
2022/01/10 06:20:39;;;;;;;26.50;10.60;;;;;;;14.58;39.65;101718.03;5129154;28;20051;-68
2022/01/10 06:23:04;;;;;;;22.47;11.03;;;;;;;15.34;38.33;101724.88;5111508;28;20031;-68
2022/01/10 06:25:30;;;;;;;25.50;11.30;;;;;;;15.26;38.37;101732.03;5104787;28;20023;-68
2022/01/10 06:27:57;;;;;;;25.57;11.23;;;;;;;14.36;40.35;101743.72;5103283;28;20130;-69
2022/01/10 06:30:23;;;;;;;22.93;10.80;;;;;;;15.00;39.38;101735.06;5131219;28;20037;-68
2022/01/10 06:32:49;;;;;;;23.27;10.53;;;;;;;14.86;38.97;101740.53;5129247;28;20015;-68
2022/01/10 06:35:15;;;;;;;29.60;12.47;;;;;;;14.95;38.60;101731.63;5130770;28;20027;-68
2022/01/10 06:37:40;;;;;;;24.73;10.97;;;;;;;14.94;39.13;101741.28;5111871;28;20439;-68
2022/01/10 06:40:06;;;;;;;33.33;11.77;;;;;;;15.40;38.33;101751.16;5111931;28;20055;-68
2022/01/10 06:42:32;;;;;;;20.10;10.97;;;;;;;15.63;37.55;101752.53;5111644;28;20024;-69
2022/01/10 06:44:58;;;;;;;23.30;11.80;;;;;;;14.85;38.89;101767.72;5111622;28;20061;-68
2022/01/10 06:47:23;;;;;;;20.93;10.93;;;;;;;15.20;38.63;101774.28;5110843;28;20546;-68
2022/01/10 06:49:49;;;;;;;23.43;11.87;;;;;;;15.27;38.28;101770.66;5128975;28;20079;-68
2022/01/10 06:52:15;;;;;;;23.53;11.37;;;;;;;14.82;39.32;101780.94;5112007;28;20027;-68
2022/01/10 06:54:41;;;;;;;24.37;11.50;;;;;;;15.63;37.78;101784.16;5109345;28;20069;-69
2022/01/10 06:57:06;;;;;;;29.83;12.43;;;;;;;15.14;38.38;101777.00;5106175;27;20117;-68
2022/01/10 06:59:32;;;;;;;21.43;11.23;;;;;;;15.40;38.15;101785.41;5121170;27;20546;-69
2022/01/10 07:01:58;;;;;;;24.03;12.23;;;;;;;15.18;39.32;101802.38;5127296;27;20121;-68
2022/01/10 07:04:25;;;;;;;30.40;12.50;;;;;;;14.40;41.05;101808.56;5112098;27;20102;-68
2022/01/10 07:06:52;;;;;;;21.03;12.60;;;;;;;15.04;39.37;101805.22;5115597;27;20417;-68
2022/01/10 07:09:17;;;;;;;21.87;11.17;;;;;;;15.10;38.93;101816.53;5106984;28;20146;-68
2022/01/10 07:11:43;;;;;;;22.40;11.80;;;;;;;14.71;39.63;101821.41;5106075;27;20041;-68
2022/01/10 07:14:08;;;;;;;25.23;12.07;;;;;;;14.43;40.48;101824.28;5114933;27;20024;-68
2022/01/10 07:16:34;;;;;;;22.43;10.23;;;;;;;14.23;40.14;101837.66;5121997;27;20035;-69
2022/01/10 07:19:00;;;;;;;27.23;12.07;;;;;;;14.39;40.99;101843.63;5115415;27;20027;-68
2022/01/10 07:21:26;;;;;;;25.40;11.77;;;;;;;14.96;39.12;101857.09;5115265;27;20506;-67
2022/01/10 07:23:51;;;;;;;26.20;12.63;;;;;;;15.62;37.93;101856.22;5126022;27;20026;-67
2022/01/10 07:26:17;;;;;;;27.27;12.63;;;;;;;14.45;39.84;101868.13;5096424;27;20077;-67
2022/01/10 07:28:43;;;;;;;28.87;13.20;;;;;;;14.78;40.47;101872.19;5134107;27;20062;-67
2022/01/10 07:31:08;;;;;;;24.63;12.00;;;;;;;14.32;40.46;101873.50;5114598;27;20031;-67
2022/01/10 07:33:34;;;;;;;27.23;12.70;;;;;;;14.85;39.68;101884.41;5114968;27;20482;-67
2022/01/10 07:36:00;;;;;;;24.40;11.37;;;;;;;13.96;41.44;101880.81;5113362;27;20387;-67
2022/01/10 07:38:26;;;;;;;21.67;12.20;;;;;;;14.85;40.29;101887.06;5131922;27;20027;-67
2022/01/10 07:40:51;;;;;;;24.43;12.17;;;;;;;13.80;41.59;101897.59;5111961;27;20386;-67
2022/01/10 07:43:16;;;;;;;25.67;12.80;;;;;;;14.85;40.07;101909.84;5109872;28;20058;-69
2022/01/10 07:45:42;;;;;;;23.10;12.50;;;;;;;14.66;40.13;101904.78;5097359;27;20085;-68
2022/01/10 07:48:08;;;;;;;25.77;12.27;;;;;;;14.94;39.92;101912.38;5122583;27;20058;-68
2022/01/10 07:50:33;;;;;;;30.50;13.20;;;;;;;15.71;38.33;101916.69;5126395;27;20490;-67
2022/01/10 07:52:59;;;;;;;29.00;13.17;;;;;;;14.96;39.25;101922.91;5114591;27;20019;-67
2022/01/10 07:55:24;;;;;;;24.80;12.93;;;;;;;15.36;39.34;101931.22;5132396;27;20324;-69
2022/01/10 07:57:49;;;;;;;24.57;11.43;;;;;;;15.10;39.84;101937.66;5113710;27;20031;-69
2022/01/10 08:00:15;;;;;;;27.27;12.63;;;;;;;14.82;40.02;101936.22;5114066;27;20478;-69
2022/01/10 08:02:41;;;;;;;24.23;11.90;;;;;;;14.93;39.85;101939.59;5114769;27;20065;-69
2022/01/10 08:05:08;;;;;;;33.50;12.87;;;;;;;15.36;39.10;101941.75;5113356;27;20026;-70
2022/01/10 08:07:34;;;;;;;29.37;12.80;;;;;;;15.19;39.44;101952.47;5132690;27;20034;-69
2022/01/10 08:09:59;;;;;;;23.03;11.83;;;;;;;14.94;40.21;101957.16;5113555;27;20432;-69
2022/01/10 08:12:25;;;;;;;24.93;11.73;;;;;;;15.23;39.23;101953.31;5131450;27;20137;-69
2022/01/10 08:14:50;;;;;;;23.90;12.77;;;;;;;15.02;39.20;101949.19;5132194;27;20027;-68
2022/01/10 08:17:15;;;;;;;26.50;12.17;;;;;;;15.16;39.50;101959.56;5093412;28;20031;-67
2022/01/10 08:19:41;;;;;;;25.20;13.00;;;;;;;15.87;38.07;101956.06;5105888;27;20059;-67
2022/01/10 08:22:07;;;;;;;29.23;12.47;;;;;;;16.22;37.35;101967.84;5109044;27;20748;-67
2022/01/10 08:24:33;;;;;;;22.60;12.20;;;;;;;16.31;36.90;101970.34;5121943;27;20080;-67
2022/01/10 08:26:59;;;;;;;22.70;11.43;;;;;;;15.86;38.06;101975.41;5101561;27;20060;-67
2022/01/10 08:29:24;;;;;;;26.70;12.40;;;;;;;14.91;39.36;101988.78;5103412;27;20061;-67
2022/01/10 08:31:50;;;;;;;24.70;11.50;;;;;;;15.77;38.15;101993.06;5122124;27;20023;-67
2022/01/10 08:34:15;;;;;;;23.47;11.37;;;;;;;16.18;37.20;101988.09;5096359;27;20106;-68
2022/01/10 08:36:41;;;;;;;27.07;12.23;;;;;;;15.53;38.37;101996.00;5128013;27;20483;-67
2022/01/10 08:39:08;;;;;;;31.80;11.87;;;;;;;16.06;37.38;102002.34;5106042;27;20031;-67
2022/01/10 08:41:35;;;;;;;27.13;11.17;;;;;;;16.22;37.32;102010.91;5101821;27;20038;-67
2022/01/10 08:44:01;;;;;;;22.87;11.87;;;;;;;16.19;37.57;102010.09;5108757;27;20498;-67
2022/01/10 08:46:27;;;;;;;27.87;12.73;;;;;;;16.08;37.83;102019.00;5111804;27;20114;-67
2022/01/10 08:48:52;;;;;;;24.30;11.20;;;;;;;16.51;37.24;102011.34;5112921;27;20102;-67
2022/01/10 08:51:18;;;;;;;26.40;11.77;;;;;;;16.49;37.16;102013.16;5111349;27;20054;-69
2022/01/10 08:53:43;;;;;;;20.47;10.50;;;;;;;16.77;36.65;102014.44;5112120;27;20513;-69
2022/01/10 08:56:09;;;;;;;28.03;10.73;;;;;;;16.60;36.90;102017.34;5131636;27;20192;-69
2022/01/10 08:58:34;;;;;;;19.87;10.33;;;;;;;17.02;36.61;102024.59;5110299;27;20031;-69
2022/01/10 09:01:01;;;;;;;20.97;10.83;;;;;;;16.91;36.58;102026.53;5097555;27;20019;-69
2022/01/10 09:03:27;;;;;;;21.20;9.97;;;;;;;16.89;37.27;102028.34;5119464;27;20503;-67
2022/01/10 09:05:54;;;;;;;23.77;10.63;;;;;;;16.67;37.08;102039.25;5105890;27;20027;-67
2022/01/10 09:08:20;;;;;;;23.70;11.00;;;;;;;15.75;38.60;102046.69;5101342;27;20122;-67
2022/01/10 09:10:46;;;;;;;26.87;10.93;;;;;;;16.00;37.87;102055.16;5101467;27;20027;-67
2022/01/10 09:13:11;;;;;;;23.67;10.73;;;;;;;16.17;37.52;102054.97;5108139;27;20049;-67
2022/01/10 09:15:37;;;;;;;23.07;10.90;;;;;;;15.67;39.22;102054.66;5109196;27;20154;-67
2022/01/10 09:18:03;;;;;;;20.23;8.73;;;;;;;16.06;38.39;102063.00;5123000;27;20031;-67
2022/01/10 09:20:29;;;;;;;20.70;10.30;;;;;;;15.39;40.05;102062.88;5125090;27;20043;-67
2022/01/10 09:22:54;;;;;;;28.63;10.33;;;;;;;16.24;38.60;102066.28;5127644;27;20026;-67
2022/01/10 09:25:20;;;;;;;26.73;11.30;;;;;;;16.69;37.30;102058.59;5101334;27;20015;-67
2022/01/10 09:27:46;;;;;;;25.97;11.53;;;;;;;15.41;40.14;102069.03;5099947;27;20024;-67
2022/01/10 09:30:12;;;;;;;21.30;11.73;;;;;;;15.97;38.99;102068.41;5107191;27;20065;-67
2022/01/10 09:32:38;;;;;;;22.03;12.30;;;;;;;15.55;39.69;102075.91;5111033;27;20030;-67
2022/01/10 09:35:04;;;;;;;24.03;12.37;;;;;;;15.36;39.84;102076.09;5104696;27;20043;-67
2022/01/10 09:37:29;;;;;;;27.43;11.83;;;;;;;15.37;39.71;102083.13;5098632;27;20037;-67
2022/01/10 09:39:55;;;;;;;28.27;11.83;;;;;;;16.02;38.68;102098.22;5120148;27;20031;-67
2022/01/10 09:42:20;;;;;;;23.87;10.83;;;;;;;15.88;39.46;102098.41;5101730;27;20141;-67
2022/01/10 09:44:46;;;;;;;30.00;10.90;;;;;;;16.78;37.67;102094.50;5119225;27;20467;-67
2022/01/10 09:47:11;;;;;;;27.67;11.20;;;;;;;16.88;37.41;102095.22;5120223;27;20026;-67
2022/01/10 09:49:37;;;;;;;25.57;12.07;;;;;;;16.65;38.01;102103.50;5100884;27;20026;-68
2022/01/10 09:52:04;;;;;;;26.93;10.23;;;;;;;16.29;38.41;102111.94;5100958;27;20035;-70
2022/01/10 09:54:29;;;;;;;21.47;10.17;;;;;;;15.91;39.18;102116.81;5117474;27;20041;-67
2022/01/10 09:56:56;;;;;;;28.27;10.93;;;;;;;16.86;38.54;102123.44;5098804;28;20122;-67
2022/01/10 09:59:21;;;;;;;24.90;10.40;;;;;;;16.97;37.29;102126.81;5102346;27;20479;-68
2022/01/10 10:01:50;;;;;;;24.07;10.00;;;;;;;16.74;37.89;102125.34;5104161;27;20030;-67
2022/01/10 10:04:17;;;;;;;20.60;9.63;;;;;;;16.83;37.56;102139.31;5109161;28;20030;-67
2022/01/10 10:06:45;;;;;;;23.27;9.73;;;;;;;17.06;37.79;102137.22;5106619;28;20031;-67
2022/01/10 10:09:10;;;;;;;22.23;9.30;;;;;;;16.50;37.90;102154.75;5103759;28;20372;-67
2022/01/10 10:11:47;;;;;;;24.07;9.17;;;;;;;17.07;37.80;102149.53;5103021;28;20037;-67
2022/01/10 10:14:14;;;;;;;26.87;10.13;;;;;;;16.16;39.88;102149.94;5107282;28;20050;-67
2022/01/10 10:16:47;;;;;;;24.57;9.87;;;;;;;16.81;38.38;102167.53;5101491;28;20562;-67
2022/01/10 10:19:14;;;;;;;28.60;10.57;;;;;;;16.22;39.36;102173.59;5110195;28;20116;-69
2022/01/10 10:21:39;;;;;;;22.27;9.80;;;;;;;14.94;40.77;102175.66;5124511;28;20027;-69
2022/01/10 10:24:05;;;;;;;23.70;9.10;;;;;;;15.39;40.97;102181.44;5123704;28;20066;-69
2022/01/10 10:26:31;;;;;;;20.50;8.97;;;;;;;16.50;38.87;102179.41;5107120;28;20019;-69
2022/01/10 10:28:57;;;;;;;24.50;9.67;;;;;;;17.13;37.69;102188.16;5110791;28;20023;-69
2022/01/10 10:31:33;;;;;;;24.17;10.03;;;;;;;16.20;39.68;102196.50;5104900;28;20034;-69
2022/01/10 10:34:02;;;;;;;20.17;9.27;;;;;;;17.31;37.17;102189.66;5103824;27;20126;-67
2022/01/10 10:36:31;;;;;;;18.80;8.90;;;;;;;16.88;38.20;102190.28;5110209;27;20114;-69
2022/01/10 10:38:57;;;;;;;22.63;8.93;;;;;;;16.69;38.83;102192.31;5110616;27;20126;-69
2022/01/10 10:41:23;;;;;;;21.10;8.60;;;;;;;17.60;37.42;102196.22;5128021;27;20073;-69
2022/01/10 10:43:51;;;;;;;22.17;8.07;;;;;;;17.07;37.20;102202.34;5130456;27;20390;-67
2022/01/10 10:46:18;;;;;;;20.30;8.37;;;;;;;17.10;37.20;102212.88;5111540;27;20059;-68
2022/01/10 10:48:49;;;;;;;21.53;8.83;;;;;;;17.34;36.75;102216.03;5133520;27;20035;-67
2022/01/10 10:51:14;;;;;;;22.80;8.70;;;;;;;16.96;37.46;102222.78;5122914;27;20030;-67
2022/01/10 10:53:41;;;;;;;16.97;8.20;;;;;;;17.15;37.54;102231.31;5129252;27;20027;-67
2022/01/10 10:56:07;;;;;;;28.87;9.07;;;;;;;17.56;37.28;102223.59;5112592;27;20043;-67
2022/01/10 10:58:33;;;;;;;17.37;8.63;;;;;;;16.73;38.26;102229.25;5126132;27;20042;-67
2022/01/10 11:00:59;;;;;;;22.23;8.03;;;;;;;15.96;40.08;102224.00;5105367;27;20035;-66
2022/01/10 11:03:25;;;;;;;17.57;8.33;;;;;;;16.03;40.11;102241.50;5113622;27;20121;-67
2022/01/10 11:05:54;;;;;;;23.43;8.00;;;;;;;16.74;38.52;102238.88;5130371;27;20449;-66
2022/01/10 11:08:21;;;;;;;25.80;8.53;;;;;;;17.40;37.22;102239.69;5110409;27;20027;-66
2022/01/10 11:10:46;;;;;;;19.60;8.40;;;;;;;15.88;40.36;102240.78;5130547;27;20026;-67
2022/01/10 11:13:13;;;;;;;17.40;8.20;;;;;;;15.94;39.94;102255.66;5108253;27;20122;-67
2022/01/10 11:15:38;;;;;;;20.33;8.23;;;;;;;16.03;40.46;102259.97;5125814;27;20019;-68
2022/01/10 11:18:06;;;;;;;18.93;7.77;;;;;;;15.87;40.15;102252.22;5110967;27;20127;-67
2022/01/10 11:20:52;;;;;;;22.30;8.63;;;;;;;16.70;39.35;102260.94;5112386;27;20043;-67
2022/01/10 11:23:18;;;;;;;22.80;8.80;;;;;;;16.26;39.44;102260.56;5104600;27;20039;-66